sensor_id;sensor_type;location;lat;lon;timestamp;temperature;humidity
12374;DHT22;6251;51.762;8.660;2023-10-08T01:03:07;17.90;99.90
12374;DHT22;6251;51.762;8.660;2023-10-08T01:13:15;17.90;99.90
12374;DHT22;6251;51.762;8.660;2023-10-08T02:54:53;15.40;99.90
12374;DHT22;6251;51.762;8.660;2023-10-08T04:05:56;13.60;99.90
12374;DHT22;6251;51.762;8.660;2023-10-08T04:16:14;13.50;99.90
12374;DHT22;6251;51.762;8.660;2023-10-08T04:26:20;13.20;99.90
12374;DHT22;6251;51.762;8.660;2023-10-08T04:36:26;13.20;99.90
12374;DHT22;6251;51.762;8.660;2023-10-08T04:46:27;13.10;99.90
12374;DHT22;6251;51.762;8.660;2023-10-08T04:56:39;13.00;99.90
12374;DHT22;6251;51.762;8.660;2023-10-08T05:06:40;12.60;99.90
12374;DHT22;6251;51.762;8.660;2023-10-08T05:16:50;12.60;99.90
12374;DHT22;6251;51.762;8.660;2023-10-08T05:27:23;12.60;99.90
12374;DHT22;6251;51.762;8.660;2023-10-08T05:37:38;12.50;99.90
12374;DHT22;6251;51.762;8.660;2023-10-08T05:47:42;12.30;99.90
12374;DHT22;6251;51.762;8.660;2023-10-08T05:58:06;12.20;99.90
12374;DHT22;6251;51.762;8.660;2023-10-08T06:08:19;12.30;99.90
12374;DHT22;6251;51.762;8.660;2023-10-08T06:18:39;12.30;99.90
12374;DHT22;6251;51.762;8.660;2023-10-08T06:28:43;12.20;99.90
12374;DHT22;6251;51.762;8.660;2023-10-08T06:38:46;12.20;99.90
12374;DHT22;6251;51.762;8.660;2023-10-08T06:48:50;12.10;99.90
12374;DHT22;6251;51.762;8.660;2023-10-08T06:58:50;12.10;99.90
12374;DHT22;6251;51.762;8.660;2023-10-08T07:08:53;12.00;99.90
12374;DHT22;6251;51.762;8.660;2023-10-08T07:18:55;11.90;99.90
12374;DHT22;6251;51.762;8.660;2023-10-08T07:29:06;11.70;99.90
12374;DHT22;6251;51.762;8.660;2023-10-08T07:39:09;11.70;99.90
12374;DHT22;6251;51.762;8.660;2023-10-08T07:49:27;11.80;99.90
12374;DHT22;6251;51.762;8.660;2023-10-08T07:59:30;11.80;99.90
12374;DHT22;6251;51.762;8.660;2023-10-08T08:09:30;12.00;99.90
12374;DHT22;6251;51.762;8.660;2023-10-08T08:19:35;12.20;99.90
12374;DHT22;6251;51.762;8.660;2023-10-08T08:29:36;12.20;99.90
12374;DHT22;6251;51.762;8.660;2023-10-08T08:39:44;12.30;99.90
12374;DHT22;6251;51.762;8.660;2023-10-08T08:49:46;12.30;99.90
12374;DHT22;6251;51.762;8.660;2023-10-08T08:59:52;12.50;99.90
12374;DHT22;6251;51.762;8.660;2023-10-08T09:09:57;12.50;99.90
12374;DHT22;6251;51.762;8.660;2023-10-08T09:19:57;12.70;99.90
12374;DHT22;6251;51.762;8.660;2023-10-08T09:30:04;13.00;99.90
12374;DHT22;6251;51.762;8.660;2023-10-08T09:40:11;13.20;99.90
12374;DHT22;6251;51.762;8.660;2023-10-08T09:50:12;13.40;99.90
12374;DHT22;6251;51.762;8.660;2023-10-08T10:00:14;13.50;99.90
12374;DHT22;6251;51.762;8.660;2023-10-08T10:10:28;13.90;99.90
12374;DHT22;6251;51.762;8.660;2023-10-08T10:20:32;14.30;99.90
12374;DHT22;6251;51.762;8.660;2023-10-08T10:30:32;14.30;99.90
12374;DHT22;6251;51.762;8.660;2023-10-08T10:40:34;14.60;99.90
12374;DHT22;6251;51.762;8.660;2023-10-08T10:50:41;14.80;99.90
12374;DHT22;6251;51.762;8.660;2023-10-08T11:01:00;15.00;99.90
12374;DHT22;6251;51.762;8.660;2023-10-08T11:11:10;15.20;99.90
12374;DHT22;6251;51.762;8.660;2023-10-08T11:21:10;15.10;99.90
12374;DHT22;6251;51.762;8.660;2023-10-08T11:31:18;14.70;99.90
12374;DHT22;6251;51.762;8.660;2023-10-08T11:41:21;14.40;99.90
12374;DHT22;6251;51.762;8.660;2023-10-08T11:51:22;14.50;99.90
12374;DHT22;6251;51.762;8.660;2023-10-08T12:01:24;14.80;99.90
12374;DHT22;6251;51.762;8.660;2023-10-08T12:11:25;15.20;99.90
12374;DHT22;6251;51.762;8.660;2023-10-08T12:21:33;15.50;99.90
12374;DHT22;6251;51.762;8.660;2023-10-08T12:31:34;15.80;99.90
12374;DHT22;6251;51.762;8.660;2023-10-08T12:41:34;16.00;99.90
12374;DHT22;6251;51.762;8.660;2023-10-08T12:51:38;16.00;99.90
12374;DHT22;6251;51.762;8.660;2023-10-08T13:01:41;16.10;99.90
12374;DHT22;6251;51.762;8.660;2023-10-08T13:11:44;16.20;99.90
12374;DHT22;6251;51.762;8.660;2023-10-08T13:21:46;16.20;99.90
12374;DHT22;6251;51.762;8.660;2023-10-08T13:31:48;15.80;99.90
12374;DHT22;6251;51.762;8.660;2023-10-08T13:41:48;15.60;99.90
12374;DHT22;6251;51.762;8.660;2023-10-08T13:51:49;15.90;99.90
12374;DHT22;6251;51.762;8.660;2023-10-08T14:01:56;16.10;99.90
12374;DHT22;6251;51.762;8.660;2023-10-08T14:11:57;15.90;99.90
12374;DHT22;6251;51.762;8.660;2023-10-08T14:21:58;15.70;99.90
12374;DHT22;6251;51.762;8.660;2023-10-08T14:32:03;15.70;99.90
12374;DHT22;6251;51.762;8.660;2023-10-08T14:42:09;15.70;99.90
12374;DHT22;6251;51.762;8.660;2023-10-08T14:52:28;15.50;99.90
12374;DHT22;6251;51.762;8.660;2023-10-08T15:02:28;15.50;99.90
12374;DHT22;6251;51.762;8.660;2023-10-08T15:12:29;15.60;99.90
12374;DHT22;6251;51.762;8.660;2023-10-08T15:22:35;15.40;99.90
12374;DHT22;6251;51.762;8.660;2023-10-08T15:32:35;15.20;99.90
12374;DHT22;6251;51.762;8.660;2023-10-08T15:42:37;14.90;99.90
12374;DHT22;6251;51.762;8.660;2023-10-08T15:52:38;14.70;99.90
12374;DHT22;6251;51.762;8.660;2023-10-08T16:02:39;14.50;99.90
12374;DHT22;6251;51.762;8.660;2023-10-08T16:12:40;14.50;99.90
12374;DHT22;6251;51.762;8.660;2023-10-08T16:22:45;14.40;99.90
12374;DHT22;6251;51.762;8.660;2023-10-08T16:32:50;14.20;99.90
12374;DHT22;6251;51.762;8.660;2023-10-08T16:42:52;14.00;99.90
12374;DHT22;6251;51.762;8.660;2023-10-08T16:52:52;13.90;99.90
12374;DHT22;6251;51.762;8.660;2023-10-08T17:02:56;13.80;99.90
12374;DHT22;6251;51.762;8.660;2023-10-08T17:12:57;13.70;99.90
12374;DHT22;6251;51.762;8.660;2023-10-08T17:22:58;13.50;99.90
12374;DHT22;6251;51.762;8.660;2023-10-08T17:32:58;13.50;99.90
12374;DHT22;6251;51.762;8.660;2023-10-08T17:42:59;13.30;99.90
12374;DHT22;6251;51.762;8.660;2023-10-08T17:53:01;13.20;99.90
12374;DHT22;6251;51.762;8.660;2023-10-08T18:03:02;13.10;99.90
12374;DHT22;6251;51.762;8.660;2023-10-08T18:13:04;13.10;99.90
12374;DHT22;6251;51.762;8.660;2023-10-08T18:23:05;13.10;99.90
12374;DHT22;6251;51.762;8.660;2023-10-08T18:33:05;13.10;99.90
12374;DHT22;6251;51.762;8.660;2023-10-08T18:43:06;13.00;99.90
12374;DHT22;6251;51.762;8.660;2023-10-08T18:53:10;12.80;99.90
12374;DHT22;6251;51.762;8.660;2023-10-08T19:03:11;12.70;99.90
12374;DHT22;6251;51.762;8.660;2023-10-08T19:13:11;12.60;99.90
12374;DHT22;6251;51.762;8.660;2023-10-08T19:23:12;12.70;99.90
12374;DHT22;6251;51.762;8.660;2023-10-08T19:33:13;12.70;99.90
12374;DHT22;6251;51.762;8.660;2023-10-08T19:43:13;12.70;99.90
12374;DHT22;6251;51.762;8.660;2023-10-08T19:53:15;12.70;99.90
12374;DHT22;6251;51.762;8.660;2023-10-08T20:03:15;12.70;99.90
12374;DHT22;6251;51.762;8.660;2023-10-08T20:13:18;12.80;99.90
12374;DHT22;6251;51.762;8.660;2023-10-08T20:23:21;12.70;99.90
12374;DHT22;6251;51.762;8.660;2023-10-08T20:33:23;12.60;99.90
12374;DHT22;6251;51.762;8.660;2023-10-08T20:43:24;12.60;99.90
12374;DHT22;6251;51.762;8.660;2023-10-08T20:53:26;12.60;99.90
12374;DHT22;6251;51.762;8.660;2023-10-08T23:07:48;12.70;99.90
